Time;durP1;ratioP1;P1;durP2;ratioP2;P2;SDS_P1;SDS_P2;PMS_P1;PMS_P2;Temp;Humidity;BMP_temperature;BMP_pressure;BME280_temperature;BME280_humidity;BME280_pressure;Samples;Min_cycle;Max_cycle;Signal;HPM_P1;HPM_P2
2023/03/05 00:01:23;;;;;;;54.75;35.67;;;;;;;;;;4992045;28;20819;-81
2023/03/05 00:03:51;;;;;;;54.75;34.72;;;;;;;;;;4988790;28;20430;-81
2023/03/05 00:06:17;;;;;;;55.13;34.80;;;;;;;;;;4992679;28;20402;-81
2023/03/05 00:08:43;;;;;;;49.95;34.35;;;;;;;;;;4991935;28;20387;-81
2023/03/05 00:11:10;;;;;;;54.50;35.20;;;;;;;;;;4974490;28;20441;-81
2023/03/05 00:13:36;;;;;;;54.13;35.70;;;;;;;;;;4991926;28;20521;-81
2023/03/05 00:16:04;;;;;;;54.47;35.28;;;;;;;;;;4992586;28;20721;-81
2023/03/05 00:18:30;;;;;;;52.28;34.85;;;;;;;;;;4992759;28;20389;-81
2023/03/05 00:20:56;;;;;;;52.37;34.63;;;;;;;;;;4992133;28;20506;-81
2023/03/05 00:23:22;;;;;;;55.25;35.65;;;;;;;;;;4992827;28;20406;-81
2023/03/05 00:25:48;;;;;;;53.03;34.33;;;;;;;;;;4992125;28;20737;-80
2023/03/05 00:28:14;;;;;;;56.17;35.75;;;;;;;;;;4992204;28;20402;-81
2023/03/05 00:30:40;;;;;;;53.20;34.95;;;;;;;;;;4992124;28;20429;-81
2023/03/05 00:33:06;;;;;;;56.63;35.40;;;;;;;;;;4974616;28;20441;-80
2023/03/05 00:35:38;;;;;;;53.90;35.33;;;;;;;;;;4992327;28;20406;-81
2023/03/05 00:38:04;;;;;;;54.08;34.85;;;;;;;;;;4992099;28;20391;-80
2023/03/05 00:40:30;;;;;;;49.67;34.47;;;;;;;;;;4992114;28;20405;-80
2023/03/05 00:42:56;;;;;;;56.53;36.33;;;;;;;;;;4992306;28;20386;-80
2023/03/05 00:45:22;;;;;;;50.33;33.72;;;;;;;;;;4992201;28;20409;-80
2023/03/05 00:47:48;;;;;;;51.35;35.22;;;;;;;;;;4991528;28;20891;-80
2023/03/05 00:50:14;;;;;;;52.20;34.40;;;;;;;;;;4992213;28;20537;-80
2023/03/05 00:52:40;;;;;;;53.35;34.15;;;;;;;;;;4992340;28;20736;-81
2023/03/05 00:55:06;;;;;;;51.90;34.55;;;;;;;;;;4991577;28;20425;-80
2023/03/05 00:57:32;;;;;;;52.15;34.35;;;;;;;;;;4991093;28;20473;-80
2023/03/05 00:59:58;;;;;;;55.58;35.78;;;;;;;;;;4991761;28;20461;-80
2023/03/05 01:02:24;;;;;;;56.47;36.03;;;;;;;;;;4991643;28;20398;-80
2023/03/05 01:04:50;;;;;;;52.53;34.45;;;;;;;;;;4991904;28;20895;-81
2023/03/05 01:07:16;;;;;;;54.65;34.30;;;;;;;;;;4991876;28;20479;-80
2023/03/05 01:09:42;;;;;;;53.33;34.22;;;;;;;;;;4991881;28;20397;-80
2023/03/05 01:12:08;;;;;;;56.17;35.28;;;;;;;;;;4992828;28;20736;-79
2023/03/05 01:14:35;;;;;;;52.60;34.65;;;;;;;;;;4994786;28;20434;-80
2023/03/05 01:17:01;;;;;;;55.50;35.40;;;;;;;;;;4993764;28;20389;-80
2023/03/05 01:19:28;;;;;;;54.28;35.20;;;;;;;;;;4993072;28;20808;-81
2023/03/05 01:21:54;;;;;;;56.17;36.05;;;;;;;;;;4992545;28;20394;-80
2023/03/05 01:24:20;;;;;;;54.72;34.10;;;;;;;;;;4992469;28;20400;-80
2023/03/05 01:26:46;;;;;;;55.33;35.33;;;;;;;;;;4991900;28;20371;-80
2023/03/05 01:29:12;;;;;;;51.22;33.17;;;;;;;;;;4992087;28;20386;-80
2023/03/05 01:31:38;;;;;;;51.28;33.67;;;;;;;;;;4991723;28;20387;-81
2023/03/05 01:34:04;;;;;;;53.05;34.33;;;;;;;;;;4991423;28;20570;-81
2023/03/05 01:36:30;;;;;;;50.22;33.67;;;;;;;;;;4991783;28;20383;-81
2023/03/05 01:38:57;;;;;;;52.53;33.38;;;;;;;;;;4991750;28;20431;-81
2023/03/05 01:41:23;;;;;;;51.63;33.85;;;;;;;;;;4974099;28;20883;-81
2023/03/05 01:43:51;;;;;;;54.05;34.67;;;;;;;;;;4991814;28;20390;-81
2023/03/05 01:46:34;;;;;;;53.15;33.92;;;;;;;;;;4991890;28;20405;-80
2023/03/05 01:49:03;;;;;;;52.15;34.50;;;;;;;;;;4991864;28;20382;-81
2023/03/05 01:51:30;;;;;;;50.83;34.05;;;;;;;;;;4991460;28;20383;-81
2023/03/05 01:53:58;;;;;;;51.20;33.72;;;;;;;;;;4991359;28;20510;-81
2023/03/05 01:56:24;;;;;;;52.30;34.05;;;;;;;;;;4991210;28;20402;-80
2023/03/05 01:58:51;;;;;;;53.88;34.20;;;;;;;;;;4991431;28;20462;-81
2023/03/05 02:01:18;;;;;;;52.30;35.10;;;;;;;;;;4990796;28;20429;-81
2023/03/05 02:03:44;;;;;;;55.78;35.50;;;;;;;;;;4991369;28;20433;-81
2023/03/05 02:06:10;;;;;;;59.88;36.00;;;;;;;;;;4991489;28;20383;-81
2023/03/05 02:08:36;;;;;;;55.83;34.83;;;;;;;;;;4992418;28;20844;-80
2023/03/05 02:11:02;;;;;;;54.42;34.97;;;;;;;;;;4995056;28;20406;-81
2023/03/05 02:13:30;;;;;;;54.27;33.83;;;;;;;;;;4995039;28;20410;-81
2023/03/05 02:15:57;;;;;;;52.53;33.58;;;;;;;;;;4995087;28;20426;-81
2023/03/05 02:18:23;;;;;;;53.63;33.72;;;;;;;;;;4995003;28;20498;-81
2023/03/05 02:20:51;;;;;;;57.00;36.20;;;;;;;;;;4977002;28;20971;-81
2023/03/05 02:23:19;;;;;;;57.08;34.95;;;;;;;;;;4992516;28;20394;-81
2023/03/05 02:25:45;;;;;;;56.53;35.95;;;;;;;;;;4994470;28;20413;-81
2023/03/05 02:28:14;;;;;;;56.13;36.00;;;;;;;;;;4994565;28;20470;-81
2023/03/05 02:30:40;;;;;;;55.25;34.63;;;;;;;;;;4991826;28;20733;-80
2023/03/05 02:33:06;;;;;;;52.95;34.08;;;;;;;;;;4994328;28;20778;-81
2023/03/05 02:35:32;;;;;;;55.33;35.10;;;;;;;;;;4992179;28;20730;-81
2023/03/05 02:37:58;;;;;;;57.05;35.10;;;;;;;;;;4994492;28;20864;-81
2023/03/05 02:40:24;;;;;;;52.40;33.92;;;;;;;;;;4994543;28;20405;-81
2023/03/05 02:42:50;;;;;;;56.47;35.50;;;;;;;;;;4992054;28;20492;-81
2023/03/05 02:45:16;;;;;;;57.53;35.92;;;;;;;;;;4994447;28;20399;-81
2023/03/05 02:47:43;;;;;;;53.50;34.08;;;;;;;;;;4993874;28;20897;-81
2023/03/05 02:50:10;;;;;;;57.05;34.80;;;;;;;;;;4993910;28;20445;-81
2023/03/05 02:52:36;;;;;;;54.28;34.08;;;;;;;;;;4994062;28;20729;-80
2023/03/05 02:55:02;;;;;;;53.15;33.85;;;;;;;;;;4993617;28;20569;-81
2023/03/05 02:57:28;;;;;;;57.80;34.17;;;;;;;;;;4993822;28;20397;-81
2023/03/05 02:59:54;;;;;;;56.30;34.55;;;;;;;;;;4993764;28;20386;-81
2023/03/05 03:02:20;;;;;;;49.30;33.30;;;;;;;;;;4994031;28;20911;-81
2023/03/05 03:04:46;;;;;;;51.58;32.83;;;;;;;;;;4994030;28;20511;-81
2023/03/05 03:07:13;;;;;;;54.40;34.08;;;;;;;;;;4993632;28;20391;-81
2023/03/05 03:09:41;;;;;;;51.43;32.83;;;;;;;;;;4984198;28;20403;-81
2023/03/05 03:12:08;;;;;;;51.95;32.65;;;;;;;;;;4983621;28;20419;-81
2023/03/05 03:14:38;;;;;;;48.80;31.57;;;;;;;;;;4986396;28;20454;-81
2023/03/05 03:17:04;;;;;;;52.97;32.67;;;;;;;;;;4992383;28;20485;-81
2023/03/05 03:19:30;;;;;;;53.42;32.40;;;;;;;;;;4993468;28;20510;-81
2023/03/05 03:21:56;;;;;;;51.05;31.02;;;;;;;;;;4975433;28;20792;-81
2023/03/05 03:24:22;;;;;;;54.05;32.05;;;;;;;;;;4992959;28;20391;-81
2023/03/05 03:26:49;;;;;;;50.25;31.25;;;;;;;;;;4975876;28;20407;-81
2023/03/05 03:29:16;;;;;;;48.80;31.27;;;;;;;;;;4993621;28;20860;-81
2023/03/05 03:31:43;;;;;;;50.25;31.05;;;;;;;;;;4975874;28;20399;-81
2023/03/05 03:34:09;;;;;;;48.13;30.65;;;;;;;;;;4993372;28;20415;-81
2023/03/05 03:36:35;;;;;;;47.83;31.15;;;;;;;;;;4993509;28;20484;-81
2023/03/05 03:39:02;;;;;;;48.65;30.60;;;;;;;;;;4993595;28;21222;-81
2023/03/05 03:41:28;;;;;;;45.72;30.00;;;;;;;;;;4993563;28;20395;-81
2023/03/05 03:43:54;;;;;;;49.43;31.40;;;;;;;;;;4975950;28;20545;-81
2023/03/05 03:46:20;;;;;;;50.88;31.70;;;;;;;;;;4993063;28;20391;-81
2023/03/05 03:48:49;;;;;;;48.28;30.58;;;;;;;;;;4992979;28;20843;-81
2023/03/05 03:51:15;;;;;;;51.60;31.08;;;;;;;;;;4993034;28;20398;-81
2023/03/05 03:53:41;;;;;;;53.42;31.35;;;;;;;;;;4992971;28;20892;-81
2023/03/05 03:56:07;;;;;;;52.20;31.27;;;;;;;;;;4992977;28;20430;-81
2023/03/05 03:58:33;;;;;;;47.63;30.23;;;;;;;;;;4993074;28;20387;-81
2023/03/05 04:00:59;;;;;;;48.00;30.40;;;;;;;;;;4975323;28;20398;-81
2023/03/05 04:03:25;;;;;;;47.45;29.95;;;;;;;;;;4975390;28;20441;-81
2023/03/05 04:05:51;;;;;;;51.10;31.13;;;;;;;;;;4975409;28;20485;-81
2023/03/05 04:08:17;;;;;;;50.53;32.15;;;;;;;;;;4993006;28;20398;-81
2023/03/05 04:10:43;;;;;;;55.40;32.90;;;;;;;;;;4978685;28;20389;-81
2023/03/05 04:13:09;;;;;;;50.22;31.02;;;;;;;;;;4992743;28;20470;-81
2023/03/05 04:15:35;;;;;;;49.95;30.90;;;;;;;;;;4992528;28;20492;-81
2023/03/05 04:18:01;;;;;;;53.67;32.67;;;;;;;;;;4975519;28;20445;-81
2023/03/05 04:20:27;;;;;;;53.95;33.05;;;;;;;;;;4992393;28;20391;-81
2023/03/05 04:22:53;;;;;;;55.05;33.53;;;;;;;;;;4974908;28;20764;-81
2023/03/05 04:25:19;;;;;;;53.00;32.50;;;;;;;;;;4987579;28;20430;-81
2023/03/05 04:27:45;;;;;;;53.00;32.47;;;;;;;;;;4967731;28;20392;-81
2023/03/05 04:30:13;;;;;;;53.75;32.35;;;;;;;;;;4990246;28;20473;-81
2023/03/05 04:32:39;;;;;;;53.33;31.98;;;;;;;;;;4975420;28;20434;-81
2023/03/05 04:35:05;;;;;;;50.25;32.08;;;;;;;;;;4975202;28;20427;-81
2023/03/05 04:37:33;;;;;;;55.10;33.28;;;;;;;;;;4976812;28;20538;-81
2023/03/05 04:39:59;;;;;;;52.33;31.60;;;;;;;;;;4993459;28;20426;-81
2023/03/05 04:42:25;;;;;;;55.27;32.50;;;;;;;;;;4997162;28;20378;-81
2023/03/05 04:44:51;;;;;;;51.42;30.90;;;;;;;;;;4992560;28;20473;-81
2023/03/05 04:47:18;;;;;;;50.63;30.58;;;;;;;;;;4981384;28;20784;-81
2023/03/05 04:49:44;;;;;;;85.55;45.72;;;;;;;;;;4988720;28;20394;-82
2023/03/05 04:52:14;;;;;;;53.40;32.85;;;;;;;;;;4972435;28;20408;-81
2023/03/05 04:54:40;;;;;;;50.67;31.55;;;;;;;;;;4974619;28;20486;-81
2023/03/05 04:57:06;;;;;;;50.55;29.58;;;;;;;;;;4977725;28;20411;-81
2023/03/05 04:59:32;;;;;;;50.80;30.57;;;;;;;;;;4976367;28;20402;-81
2023/03/05 05:01:58;;;;;;;44.40;28.45;;;;;;;;;;4988132;28;20861;-81
2023/03/05 05:04:24;;;;;;;47.65;29.13;;;;;;;;;;4990131;28;20436;-81
2023/03/05 05:06:50;;;;;;;46.20;29.10;;;;;;;;;;4987699;28;20395;-81
2023/03/05 05:09:16;;;;;;;46.20;28.05;;;;;;;;;;4989082;28;20394;-81
2023/03/05 05:11:42;;;;;;;44.60;27.70;;;;;;;;;;4989193;28;20441;-81
2023/03/05 05:14:08;;;;;;;42.38;27.15;;;;;;;;;;4989862;28;20474;-81
2023/03/05 05:16:34;;;;;;;43.45;26.75;;;;;;;;;;4990118;28;20386;-82
2023/03/05 05:19:00;;;;;;;45.17;27.23;;;;;;;;;;4989557;28;20390;-81
2023/03/05 05:21:26;;;;;;;40.75;26.00;;;;;;;;;;4972990;28;20393;-81
2023/03/05 05:23:52;;;;;;;40.60;27.02;;;;;;;;;;4990841;28;20477;-81
2023/03/05 05:26:18;;;;;;;40.40;25.88;;;;;;;;;;4990752;28;20406;-81
2023/03/05 05:28:44;;;;;;;38.20;25.67;;;;;;;;;;4990847;28;20888;-81
2023/03/05 05:31:11;;;;;;;39.97;25.75;;;;;;;;;;4990673;28;20394;-81
2023/03/05 05:33:37;;;;;;;41.00;25.42;;;;;;;;;;4989403;28;20432;-81
2023/03/05 05:36:04;;;;;;;39.60;26.25;;;;;;;;;;4972933;28;20642;-82
2023/03/05 05:38:30;;;;;;;42.80;27.08;;;;;;;;;;4991567;28;20393;-82
2023/03/05 05:41:01;;;;;;;40.28;26.08;;;;;;;;;;4991249;28;20863;-82
2023/03/05 05:43:27;;;;;;;44.28;26.90;;;;;;;;;;4991364;28;20435;-82
2023/03/05 05:45:53;;;;;;;43.70;27.23;;;;;;;;;;4995019;28;20417;-82
2023/03/05 05:48:19;;;;;;;40.75;27.75;;;;;;;;;;4995414;28;20876;-82
2023/03/05 05:50:44;;;;;;;44.80;27.60;;;;;;;;;;4995158;28;20391;-82
2023/03/05 05:53:10;;;;;;;44.40;27.40;;;;;;;;;;4995272;28;20429;-82
2023/03/05 05:55:40;;;;;;;51.08;33.20;;;;;;;;;;4995334;28;20402;-82
2023/03/05 05:58:06;;;;;;;46.80;29.47;;;;;;;;;;4995296;28;20576;-82
2023/03/05 06:00:32;;;;;;;41.88;25.80;;;;;;;;;;4994731;28;20470;-82
2023/03/05 06:02:57;;;;;;;40.65;26.35;;;;;;;;;;4995336;28;20387;-81
2023/03/05 06:05:23;;;;;;;41.13;25.75;;;;;;;;;;4995050;28;20725;-81
2023/03/05 06:07:49;;;;;;;49.35;27.83;;;;;;;;;;4994832;28;20529;-81
2023/03/05 06:10:15;;;;;;;38.38;25.35;;;;;;;;;;4994112;28;20778;-82
2023/03/05 06:12:41;;;;;;;39.78;25.63;;;;;;;;;;4994593;28;20402;-82
2023/03/05 06:15:08;;;;;;;40.00;26.00;;;;;;;;;;4993841;28;20756;-81
2023/03/05 06:17:34;;;;;;;35.40;23.85;;;;;;;;;;4994663;28;20391;-82
2023/03/05 06:20:00;;;;;;;39.05;25.75;;;;;;;;;;4994748;28;20885;-82
2023/03/05 06:22:26;;;;;;;39.30;25.17;;;;;;;;;;4976808;28;20398;-82
2023/03/05 06:24:52;;;;;;;40.30;25.13;;;;;;;;;;4994064;28;20866;-81
2023/03/05 06:27:18;;;;;;;39.70;25.35;;;;;;;;;;4994389;28;20391;-82
2023/03/05 06:29:44;;;;;;;40.42;25.05;;;;;;;;;;4976747;28;20391;-81
2023/03/05 06:32:10;;;;;;;39.20;24.35;;;;;;;;;;4993683;28;21139;-82
2023/03/05 06:34:36;;;;;;;44.78;28.60;;;;;;;;;;4993686;28;20420;-81
2023/03/05 06:37:02;;;;;;;44.78;30.52;;;;;;;;;;4993530;28;20405;-81
2023/03/05 06:39:30;;;;;;;45.37;27.97;;;;;;;;;;4994144;28;20386;-81
2023/03/05 06:41:56;;;;;;;38.00;25.30;;;;;;;;;;4991348;28;20801;-81
2023/03/05 06:44:22;;;;;;;39.20;25.60;;;;;;;;;;4993812;28;20482;-81
2023/03/05 06:46:48;;;;;;;36.53;23.00;;;;;;;;;;4994103;28;20511;-81
2023/03/05 06:49:14;;;;;;;37.20;25.00;;;;;;;;;;4994334;28;20441;-81
2023/03/05 06:51:41;;;;;;;37.10;24.05;;;;;;;;;;4994279;28;20391;-81
2023/03/05 06:54:11;;;;;;;33.75;22.35;;;;;;;;;;4993936;28;20426;-81
2023/03/05 06:56:38;;;;;;;39.27;23.60;;;;;;;;;;4993334;28;20417;-81
2023/03/05 06:59:05;;;;;;;32.95;22.40;;;;;;;;;;4980794;28;20430;-81
2023/03/05 07:01:31;;;;;;;36.45;22.67;;;;;;;;;;4994222;28;20402;-81
2023/03/05 07:03:59;;;;;;;32.72;21.23;;;;;;;;;;4994378;28;20460;-81
2023/03/05 07:06:28;;;;;;;33.72;21.30;;;;;;;;;;4993546;28;20482;-81
2023/03/05 07:08:55;;;;;;;33.92;21.33;;;;;;;;;;4992893;28;20406;-81
2023/03/05 07:11:21;;;;;;;32.72;20.30;;;;;;;;;;4992917;28;20412;-82
2023/03/05 07:13:47;;;;;;;29.08;20.48;;;;;;;;;;4990254;28;20465;-81
2023/03/05 07:16:15;;;;;;;33.60;21.10;;;;;;;;;;4985024;28;20392;-81
2023/03/05 07:18:41;;;;;;;33.88;21.63;;;;;;;;;;4992131;28;20389;-82
2023/03/05 07:21:08;;;;;;;30.30;20.45;;;;;;;;;;4992519;28;20386;-82
2023/03/05 07:23:34;;;;;;;35.15;22.27;;;;;;;;;;4991358;28;20384;-81
2023/03/05 07:26:04;;;;;;;29.25;20.40;;;;;;;;;;4965560;28;20421;-81
2023/03/05 07:28:30;;;;;;;31.02;20.27;;;;;;;;;;4989598;28;20379;-81
2023/03/05 07:31:01;;;;;;;30.92;20.77;;;;;;;;;;4985048;28;20384;-84
2023/03/05 07:33:27;;;;;;;32.47;20.77;;;;;;;;;;4993367;28;20429;-81
2023/03/05 07:35:53;;;;;;;31.80;20.10;;;;;;;;;;4983928;28;20427;-83
2023/03/05 07:38:19;;;;;;;28.88;20.80;;;;;;;;;;4975789;28;20459;-83
2023/03/05 07:40:45;;;;;;;34.67;21.50;;;;;;;;;;4980078;28;20391;-83
2023/03/05 07:43:11;;;;;;;32.00;20.00;;;;;;;;;;4972584;28;20457;-83
2023/03/05 07:45:41;;;;;;;33.70;21.20;;;;;;;;;;4973062;28;20388;-81
2023/03/05 07:48:08;;;;;;;32.25;21.02;;;;;;;;;;4975461;28;20468;-81
2023/03/05 07:50:34;;;;;;;32.85;21.95;;;;;;;;;;4989921;28;20418;-83
2023/03/05 07:53:00;;;;;;;34.88;22.50;;;;;;;;;;4961929;28;20392;-81
2023/03/05 07:55:26;;;;;;;35.10;22.67;;;;;;;;;;4975525;28;20424;-81
2023/03/05 07:57:52;;;;;;;34.20;21.75;;;;;;;;;;4980729;28;20470;-80
2023/03/05 08:00:18;;;;;;;33.30;21.65;;;;;;;;;;4993242;28;20393;-80
2023/03/05 08:02:44;;;;;;;34.25;21.98;;;;;;;;;;4981002;28;20390;-81
2023/03/05 08:05:10;;;;;;;31.58;21.13;;;;;;;;;;4973997;28;20434;-81
2023/03/05 08:07:36;;;;;;;32.70;21.25;;;;;;;;;;4973876;28;21036;-80
2023/03/05 08:10:03;;;;;;;29.58;20.30;;;;;;;;;;4990228;28;20465;-81
2023/03/05 08:12:29;;;;;;;34.85;21.80;;;;;;;;;;4996673;28;20446;-80
2023/03/05 08:14:55;;;;;;;35.43;22.13;;;;;;;;;;4994253;28;20429;-80
2023/03/05 08:17:21;;;;;;;33.17;22.13;;;;;;;;;;4993591;28;20453;-80
2023/03/05 08:19:47;;;;;;;32.55;21.33;;;;;;;;;;4993928;28;20402;-79
2023/03/05 08:22:15;;;;;;;35.13;22.08;;;;;;;;;;4994064;28;20378;-81
2023/03/05 08:24:41;;;;;;;39.88;23.35;;;;;;;;;;4988215;28;20391;-80
2023/03/05 08:27:07;;;;;;;34.83;22.85;;;;;;;;;;4993984;28;20497;-81
2023/03/05 08:29:33;;;;;;;39.97;23.02;;;;;;;;;;4989875;28;20792;-80
2023/03/05 08:31:59;;;;;;;35.60;23.03;;;;;;;;;;4993077;28;20459;-84
2023/03/05 08:34:25;;;;;;;27.40;18.42;;;;;;;;;;4990335;28;20468;-85
2023/03/05 08:36:51;;;;;;;28.23;19.57;;;;;;;;;;4974306;28;20406;-82
2023/03/05 08:39:17;;;;;;;25.42;16.90;;;;;;;;;;4991584;28;20795;-83
2023/03/05 08:41:43;;;;;;;24.23;16.58;;;;;;;;;;4991567;28;20382;-87
2023/03/05 08:44:10;;;;;;;18.35;14.05;;;;;;;;;;4991415;28;20378;-87
2023/03/05 08:46:38;;;;;;;21.00;15.88;;;;;;;;;;4992360;28;20441;-87
2023/03/05 08:49:06;;;;;;;18.20;13.73;;;;;;;;;;4991911;28;20411;-87
2023/03/05 08:51:32;;;;;;;17.50;12.47;;;;;;;;;;4975079;28;20908;-86
2023/03/05 08:53:59;;;;;;;17.63;13.00;;;;;;;;;;4974671;28;20460;-88
2023/03/05 08:56:27;;;;;;;18.92;13.43;;;;;;;;;;4992692;28;20429;-88
2023/03/05 08:58:53;;;;;;;16.23;13.05;;;;;;;;;;4974461;28;20426;-86
2023/03/05 09:01:19;;;;;;;14.07;11.77;;;;;;;;;;4974420;28;20425;-89
2023/03/05 09:03:45;;;;;;;16.85;12.52;;;;;;;;;;4974459;28;20389;-86
2023/03/05 09:06:12;;;;;;;13.90;11.77;;;;;;;;;;4974662;28;20390;-88
2023/03/05 09:08:38;;;;;;;18.05;12.02;;;;;;;;;;4974624;28;20477;-87
2023/03/05 09:11:05;;;;;;;13.20;10.85;;;;;;;;;;4973972;28;20906;-87
2023/03/05 09:13:31;;;;;;;11.23;9.52;;;;;;;;;;4992058;28;20453;-87
2023/03/05 09:16:03;;;;;;;11.37;9.17;;;;;;;;;;4992014;28;20504;-87
2023/03/05 09:18:30;;;;;;;8.55;7.70;;;;;;;;;;4975409;28;20389;-88
2023/03/05 09:20:56;;;;;;;9.80;7.32;;;;;;;;;;4995633;28;20477;-88
2023/03/05 09:23:23;;;;;;;8.48;7.57;;;;;;;;;;4978419;28;20394;-89
2023/03/05 09:25:49;;;;;;;9.43;8.05;;;;;;;;;;4995973;28;20875;-89
2023/03/05 09:28:15;;;;;;;8.80;7.80;;;;;;;;;;4995872;28;20402;-88
2023/03/05 09:30:41;;;;;;;9.15;8.20;;;;;;;;;;4978134;28;20393;-89
2023/03/05 09:33:07;;;;;;;9.73;7.93;;;;;;;;;;4977914;28;20417;-89
2023/03/05 09:35:35;;;;;;;8.00;7.28;;;;;;;;;;4977980;28;20410;-89
2023/03/05 09:38:01;;;;;;;9.63;8.07;;;;;;;;;;4995592;28;20867;-89
2023/03/05 09:40:30;;;;;;;8.55;7.75;;;;;;;;;;4995517;28;20406;-88
2023/03/05 09:43:02;;;;;;;8.77;6.93;;;;;;;;;;4977835;28;20393;-88
2023/03/05 09:45:28;;;;;;;8.40;6.97;;;;;;;;;;4977714;28;20425;-88
2023/03/05 09:48:17;;;;;;;8.02;7.28;;;;;;;;;;4977672;28;20426;-89
2023/03/05 09:50:49;;;;;;;7.80;7.00;;;;;;;;;;4977465;28;20383;-88
2023/03/05 09:53:20;;;;;;;9.05;7.30;;;;;;;;;;4995047;28;20425;-88
2023/03/05 09:55:50;;;;;;;7.37;6.63;;;;;;;;;;4995140;28;20394;-88
2023/03/05 09:58:18;;;;;;;9.47;7.00;;;;;;;;;;4977416;28;20485;-88
2023/03/05 10:00:48;;;;;;;7.53;6.63;;;;;;;;;;4995118;28;20540;-89
2023/03/05 10:03:17;;;;;;;7.15;6.45;;;;;;;;;;4995098;28;20393;-88
2023/03/05 10:06:05;;;;;;;5.93;5.38;;;;;;;;;;4995107;28;20643;-88
2023/03/05 10:08:54;;;;;;;7.10;6.40;;;;;;;;;;4977403;28;20390;-87
2023/03/05 10:11:42;;;;;;;6.25;5.40;;;;;;;;;;4967168;28;20394;-89
2023/03/05 10:14:13;;;;;;;6.28;5.68;;;;;;;;;;4994704;28;20425;-89
2023/03/05 10:16:45;;;;;;;7.07;5.60;;;;;;;;;;4977283;28;20395;-89
2023/03/05 10:19:37;;;;;;;6.65;6.05;;;;;;;;;;4984558;28;20855;-89
2023/03/05 10:22:06;;;;;;;6.30;5.70;;;;;;;;;;4979649;28;20386;-89
2023/03/05 10:24:51;;;;;;;6.57;5.97;;;;;;;;;;4976617;28;20951;-88
2023/03/05 10:27:22;;;;;;;6.47;5.82;;;;;;;;;;4994594;28;20472;-89
2023/03/05 10:30:07;;;;;;;6.63;5.95;;;;;;;;;;4994196;28;20394;-88
2023/03/05 10:32:33;;;;;;;6.30;5.47;;;;;;;;;;4994530;28;20502;-89
2023/03/05 10:35:17;;;;;;;5.20;4.80;;;;;;;;;;4994475;28;20885;-88
2023/03/05 10:37:49;;;;;;;5.93;5.33;;;;;;;;;;4994428;28;20467;-88
2023/03/05 10:40:34;;;;;;;6.00;5.40;;;;;;;;;;4994595;28;20853;-90
2023/03/05 10:43:19;;;;;;;5.43;5.03;;;;;;;;;;4994202;28;20386;-90
2023/03/05 10:45:46;;;;;;;5.88;5.28;;;;;;;;;;4976586;28;20509;-89
2023/03/05 10:48:15;;;;;;;6.80;5.50;;;;;;;;;;4976628;28;20454;-90
2023/03/05 10:50:47;;;;;;;5.82;5.20;;;;;;;;;;4975896;28;20383;-89
2023/03/05 10:53:23;;;;;;;5.63;5.10;;;;;;;;;;4994386;28;20462;-89
2023/03/05 10:55:54;;;;;;;5.35;4.85;;;;;;;;;;4994379;28;20391;-89
2023/03/05 10:58:21;;;;;;;5.90;5.38;;;;;;;;;;4976709;28;20387;-89
2023/03/05 11:01:07;;;;;;;6.10;5.50;;;;;;;;;;4976253;28;20872;-89
2023/03/05 11:03:52;;;;;;;6.33;5.70;;;;;;;;;;4963157;28;20390;-90
2023/03/05 11:06:29;;;;;;;5.90;5.40;;;;;;;;;;4993873;28;20833;-88
2023/03/05 11:08:55;;;;;;;5.30;4.82;;;;;;;;;;4976166;28;20494;-89
2023/03/05 11:11:21;;;;;;;5.38;4.80;;;;;;;;;;4994129;28;20390;-88
2023/03/05 11:13:47;;;;;;;4.88;4.32;;;;;;;;;;4993420;28;20410;-90
2023/03/05 11:16:16;;;;;;;4.97;4.57;;;;;;;;;;4976167;28;20402;-89
2023/03/05 11:18:45;;;;;;;5.45;4.80;;;;;;;;;;4993579;28;20465;-89
2023/03/05 11:21:18;;;;;;;5.68;5.18;;;;;;;;;;4993351;28;20390;-90
2023/03/05 11:23:44;;;;;;;5.00;4.60;;;;;;;;;;4993660;28;20898;-89
2023/03/05 11:26:13;;;;;;;4.75;4.35;;;;;;;;;;4993532;28;20417;-88
2023/03/05 11:28:40;;;;;;;5.10;4.70;;;;;;;;;;4975997;28;20381;-88
2023/03/05 11:31:15;;;;;;;6.00;5.50;;;;;;;;;;4975587;28;20441;-89
2023/03/05 11:33:54;;;;;;;6.13;5.63;;;;;;;;;;4993653;28;20456;-89
2023/03/05 11:36:25;;;;;;;6.05;5.55;;;;;;;;;;4975776;28;20393;-89
2023/03/05 11:38:54;;;;;;;6.20;5.63;;;;;;;;;;4975746;28;20752;-89
2023/03/05 11:41:24;;;;;;;5.63;5.13;;;;;;;;;;4994071;28;20398;-89
2023/03/05 11:43:51;;;;;;;6.00;5.50;;;;;;;;;;4980759;28;20449;-88
2023/03/05 11:46:18;;;;;;;5.65;5.15;;;;;;;;;;4977575;28;20429;-89
2023/03/05 11:48:45;;;;;;;5.82;5.32;;;;;;;;;;4984092;28;20378;-88
2023/03/05 11:51:34;;;;;;;5.78;5.28;;;;;;;;;;4997383;28;20422;-88
2023/03/05 11:54:05;;;;;;;6.40;5.90;;;;;;;;;;4976882;28;20415;-88
2023/03/05 11:56:33;;;;;;;6.23;5.63;;;;;;;;;;4976676;28;20406;-89
2023/03/05 11:59:11;;;;;;;6.70;6.10;;;;;;;;;;4975997;28;20469;-88
2023/03/05 12:01:42;;;;;;;7.03;6.32;;;;;;;;;;4992696;28;20398;-89
2023/03/05 12:04:08;;;;;;;6.80;6.18;;;;;;;;;;4992831;28;20382;-88
2023/03/05 12:06:40;;;;;;;6.82;6.13;;;;;;;;;;4992836;28;20420;-88
2023/03/05 12:09:09;;;;;;;6.53;5.93;;;;;;;;;;4992387;28;20449;-89
2023/03/05 12:11:35;;;;;;;6.37;5.77;;;;;;;;;;4974988;28;20410;-88
2023/03/05 12:14:06;;;;;;;6.47;5.97;;;;;;;;;;4979498;28;20411;-89
2023/03/05 12:16:38;;;;;;;6.35;5.75;;;;;;;;;;4992603;28;20404;-88
2023/03/05 12:19:33;;;;;;;6.23;5.73;;;;;;;;;;4992825;28;20625;-89
2023/03/05 12:21:59;;;;;;;6.50;5.90;;;;;;;;;;4964249;28;20403;-90
2023/03/05 12:24:25;;;;;;;6.57;5.97;;;;;;;;;;4984948;28;20740;-88
2023/03/05 12:27:01;;;;;;;6.30;5.80;;;;;;;;;;4975138;28;20391;-89
2023/03/05 12:29:33;;;;;;;7.78;7.07;;;;;;;;;;4992179;28;20390;-88
2023/03/05 12:32:03;;;;;;;7.27;6.50;;;;;;;;;;4975223;28;20477;-88
2023/03/05 12:34:36;;;;;;;6.97;6.30;;;;;;;;;;4992398;28;20417;-88
2023/03/05 12:37:03;;;;;;;7.00;6.40;;;;;;;;;;4992230;28;20450;-90
2023/03/05 12:39:46;;;;;;;6.78;6.13;;;;;;;;;;4974476;28;20414;-89
2023/03/05 12:42:27;;;;;;;6.33;5.80;;;;;;;;;;4991973;28;20462;-88
2023/03/05 12:45:11;;;;;;;7.25;6.55;;;;;;;;;;4974484;28;20466;-88
2023/03/05 12:47:40;;;;;;;6.90;6.22;;;;;;;;;;4992257;28;20744;-89
2023/03/05 12:50:25;;;;;;;6.82;6.18;;;;;;;;;;4974323;28;20406;-88
2023/03/05 12:52:55;;;;;;;6.88;6.28;;;;;;;;;;4991567;28;20386;-90
2023/03/05 12:55:32;;;;;;;7.22;5.82;;;;;;;;;;4991690;28;20878;-88
2023/03/05 12:58:05;;;;;;;6.40;5.80;;;;;;;;;;4974405;28;20401;-89
2023/03/05 13:00:50;;;;;;;6.80;6.20;;;;;;;;;;4974119;28;20864;-88
2023/03/05 13:03:27;;;;;;;6.73;6.20;;;;;;;;;;4991658;28;20516;-89
2023/03/05 13:05:54;;;;;;;6.75;6.15;;;;;;;;;;4974215;28;20386;-88
2023/03/05 13:08:47;;;;;;;6.60;6.00;;;;;;;;;;4974324;28;20428;-88
2023/03/05 13:11:18;;;;;;;6.60;6.10;;;;;;;;;;4970536;28;20415;-88
2023/03/05 13:13:47;;;;;;;6.93;6.32;;;;;;;;;;4991607;28;20418;-88
2023/03/05 13:16:23;;;;;;;7.20;6.50;;;;;;;;;;4991527;28;20429;-87
2023/03/05 13:18:50;;;;;;;6.72;6.13;;;;;;;;;;4992103;28;20879;-87
2023/03/05 13:21:17;;;;;;;6.10;5.50;;;;;;;;;;4991640;28;20391;-87
2023/03/05 13:24:09;;;;;;;7.10;6.50;;;;;;;;;;4992046;28;20445;-88
2023/03/05 13:26:37;;;;;;;6.85;6.15;;;;;;;;;;4970358;28;20420;-87
2023/03/05 13:29:14;;;;;;;6.70;6.10;;;;;;;;;;4974749;28;20406;-91
2023/03/05 13:31:42;;;;;;;6.77;6.17;;;;;;;;;;4991252;28;20378;-84
2023/03/05 13:34:16;;;;;;;7.35;6.75;;;;;;;;;;4991476;28;20875;-83
2023/03/05 13:36:46;;;;;;;7.05;6.45;;;;;;;;;;4991847;28;20403;-85
2023/03/05 13:39:17;;;;;;;7.13;6.53;;;;;;;;;;4991788;28;20397;-86
2023/03/05 13:41:54;;;;;;;7.05;6.45;;;;;;;;;;4991810;28;20886;-84
2023/03/05 13:44:21;;;;;;;6.82;6.22;;;;;;;;;;4992048;28;20440;-83
2023/03/05 13:46:47;;;;;;;6.77;6.17;;;;;;;;;;4992074;28;20809;-84
2023/03/05 13:49:27;;;;;;;8.77;6.40;;;;;;;;;;4991576;28;20701;-82
2023/03/05 13:51:54;;;;;;;6.78;6.18;;;;;;;;;;4991162;28;20725;-82
2023/03/05 13:54:21;;;;;;;10.63;6.53;;;;;;;;;;4991675;28;20433;-84
2023/03/05 13:57:08;;;;;;;6.85;6.20;;;;;;;;;;4972768;28;20752;-87
2023/03/05 13:59:37;;;;;;;9.35;6.93;;;;;;;;;;4988808;28;20399;-86
2023/03/05 14:02:11;;;;;;;6.88;6.28;;;;;;;;;;4991216;28;20868;-85
2023/03/05 14:04:40;;;;;;;7.20;6.25;;;;;;;;;;4976613;28;20425;-84
2023/03/05 14:07:25;;;;;;;6.95;6.30;;;;;;;;;;4995541;28;20395;-88
2023/03/05 14:09:52;;;;;;;6.10;5.50;;;;;;;;;;4977405;28;20375;-86
2023/03/05 14:12:29;;;;;;;11.27;6.10;;;;;;;;;;4995007;28;20491;-87
2023/03/05 14:14:55;;;;;;;16.30;6.38;;;;;;;;;;4995065;28;20426;-84
2023/03/05 14:17:22;;;;;;;7.07;5.93;;;;;;;;;;4995047;28;20430;-83
2023/03/05 14:19:48;;;;;;;6.45;5.88;;;;;;;;;;4994404;28;20485;-86
2023/03/05 14:22:31;;;;;;;6.25;5.65;;;;;;;;;;4995039;28;20952;-87
2023/03/05 14:24:57;;;;;;;6.20;5.70;;;;;;;;;;4977119;28;20895;-88
2023/03/05 14:27:23;;;;;;;6.30;5.80;;;;;;;;;;4995190;28;20422;-91
2023/03/05 14:29:49;;;;;;;5.97;5.47;;;;;;;;;;4992902;28;20395;-86
2023/03/05 14:32:20;;;;;;;6.05;5.55;;;;;;;;;;4994034;28;20394;-86
2023/03/05 14:34:50;;;;;;;5.93;5.32;;;;;;;;;;4994501;28;20553;-84